sensor_id;sensor_type;location;lat;lon;timestamp;P1;durP1;ratioP1;P2;durP2;ratioP2
52029;SDS011;38043;53.224;6.580;2022-09-12T00:00:09;13.43;;;9.85;;
52029;SDS011;38043;53.224;6.580;2022-09-12T00:02:35;16.55;;;9.90;;
52029;SDS011;38043;53.224;6.580;2022-09-12T00:05:01;13.57;;;9.70;;
52029;SDS011;38043;53.224;6.580;2022-09-12T00:07:27;22.67;;;10.60;;
52029;SDS011;38043;53.224;6.580;2022-09-12T00:09:54;10.68;;;9.20;;
52029;SDS011;38043;53.224;6.580;2022-09-12T00:12:20;13.27;;;11.05;;
52029;SDS011;38043;53.224;6.580;2022-09-12T00:14:45;12.48;;;10.63;;
52029;SDS011;38043;53.224;6.580;2022-09-12T00:17:11;15.13;;;10.60;;
52029;SDS011;38043;53.224;6.580;2022-09-12T00:19:37;13.45;;;11.30;;
52029;SDS011;38043;53.224;6.580;2022-09-12T00:22:02;13.45;;;11.65;;
52029;SDS011;38043;53.224;6.580;2022-09-12T00:24:28;13.35;;;11.95;;
52029;SDS011;38043;53.224;6.580;2022-09-12T00:26:53;20.60;;;13.35;;
52029;SDS011;38043;53.224;6.580;2022-09-12T00:29:20;14.55;;;12.85;;
52029;SDS011;38043;53.224;6.580;2022-09-12T00:31:46;16.73;;;14.07;;
52029;SDS011;38043;53.224;6.580;2022-09-12T00:34:12;15.10;;;13.30;;
52029;SDS011;38043;53.224;6.580;2022-09-12T00:36:38;17.55;;;15.68;;
52029;SDS011;38043;53.224;6.580;2022-09-12T00:39:04;18.27;;;16.05;;
52029;SDS011;38043;53.224;6.580;2022-09-12T00:41:34;20.90;;;18.80;;
52029;SDS011;38043;53.224;6.580;2022-09-12T00:44:41;21.75;;;19.42;;
52029;SDS011;38043;53.224;6.580;2022-09-12T00:54:37;49.97;;;40.97;;
52029;SDS011;38043;53.224;6.580;2022-09-12T00:57:07;55.58;;;46.67;;
52029;SDS011;38043;53.224;6.580;2022-09-12T00:59:37;56.28;;;48.10;;
52029;SDS011;38043;53.224;6.580;2022-09-12T01:02:08;90.55;;;74.50;;
52029;SDS011;38043;53.224;6.580;2022-09-12T01:04:34;88.65;;;76.65;;
52029;SDS011;38043;53.224;6.580;2022-09-12T01:07:02;97.63;;;79.75;;
52029;SDS011;38043;53.224;6.580;2022-09-12T01:09:30;95.53;;;79.40;;
52029;SDS011;38043;53.224;6.580;2022-09-12T01:11:56;101.88;;;83.10;;
52029;SDS011;38043;53.224;6.580;2022-09-12T01:14:23;95.03;;;78.70;;
52029;SDS011;38043;53.224;6.580;2022-09-12T01:16:49;87.63;;;71.68;;
52029;SDS011;38043;53.224;6.580;2022-09-12T01:22:50;66.93;;;56.00;;
52029;SDS011;38043;53.224;6.580;2022-09-12T01:30:54;37.58;;;33.63;;
52029;SDS011;38043;53.224;6.580;2022-09-12T01:38:57;27.13;;;24.30;;
52029;SDS011;38043;53.224;6.580;2022-09-12T01:50:51;20.00;;;17.95;;
52029;SDS011;38043;53.224;6.580;2022-09-12T01:54:04;21.75;;;16.95;;
52029;SDS011;38043;53.224;6.580;2022-09-12T01:56:28;19.17;;;17.17;;
52029;SDS011;38043;53.224;6.580;2022-09-12T02:02:00;19.65;;;17.45;;
52029;SDS011;38043;53.224;6.580;2022-09-12T02:04:33;19.25;;;17.25;;
52029;SDS011;38043;53.224;6.580;2022-09-12T02:07:22;18.90;;;16.67;;
52029;SDS011;38043;53.224;6.580;2022-09-12T02:10:01;20.90;;;17.90;;
52029;SDS011;38043;53.224;6.580;2022-09-12T02:12:34;20.77;;;18.58;;
52029;SDS011;38043;53.224;6.580;2022-09-12T02:15:06;25.25;;;22.65;;
52029;SDS011;38043;53.224;6.580;2022-09-12T02:17:38;26.70;;;23.50;;
52029;SDS011;38043;53.224;6.580;2022-09-12T02:20:11;34.60;;;28.38;;
52029;SDS011;38043;53.224;6.580;2022-09-12T02:22:41;39.15;;;34.40;;
52029;SDS011;38043;53.224;6.580;2022-09-12T02:25:09;45.80;;;39.55;;
52029;SDS011;38043;53.224;6.580;2022-09-12T02:27:45;52.00;;;44.03;;
52029;SDS011;38043;53.224;6.580;2022-09-12T02:30:25;50.38;;;41.70;;
52029;SDS011;38043;53.224;6.580;2022-09-12T02:33:00;48.55;;;42.28;;
52029;SDS011;38043;53.224;6.580;2022-09-12T02:35:46;51.63;;;43.75;;
52029;SDS011;38043;53.224;6.580;2022-09-12T02:38:23;52.80;;;45.55;;
52029;SDS011;38043;53.224;6.580;2022-09-12T02:40:51;52.17;;;44.53;;
52029;SDS011;38043;53.224;6.580;2022-09-12T02:43:18;57.13;;;46.17;;
52029;SDS011;38043;53.224;6.580;2022-09-12T02:45:43;53.78;;;46.58;;
52029;SDS011;38043;53.224;6.580;2022-09-12T02:48:14;55.75;;;47.63;;
52029;SDS011;38043;53.224;6.580;2022-09-12T02:50:47;50.10;;;42.38;;
52029;SDS011;38043;53.224;6.580;2022-09-12T02:53:13;48.55;;;41.08;;
52029;SDS011;38043;53.224;6.580;2022-09-12T02:55:40;43.33;;;38.25;;
52029;SDS011;38043;53.224;6.580;2022-09-12T02:58:12;47.20;;;38.57;;
52029;SDS011;38043;53.224;6.580;2022-09-12T03:00:43;40.20;;;33.33;;
52029;SDS011;38043;53.224;6.580;2022-09-12T03:06:26;38.92;;;31.67;;
52029;SDS011;38043;53.224;6.580;2022-09-12T03:09:06;34.33;;;30.10;;
52029;SDS011;38043;53.224;6.580;2022-09-12T03:11:58;29.95;;;26.67;;
52029;SDS011;38043;53.224;6.580;2022-09-12T03:17:37;28.10;;;25.08;;
52029;SDS011;38043;53.224;6.580;2022-09-12T03:20:07;27.23;;;23.40;;
52029;SDS011;38043;53.224;6.580;2022-09-12T03:25:31;26.00;;;22.20;;
52029;SDS011;38043;53.224;6.580;2022-09-12T03:28:06;29.70;;;23.20;;
52029;SDS011;38043;53.224;6.580;2022-09-12T03:30:45;25.77;;;22.83;;
52029;SDS011;38043;53.224;6.580;2022-09-12T03:33:13;27.58;;;22.83;;
52029;SDS011;38043;53.224;6.580;2022-09-12T03:35:43;29.05;;;22.63;;
52029;SDS011;38043;53.224;6.580;2022-09-12T03:38:10;25.67;;;21.63;;
52029;SDS011;38043;53.224;6.580;2022-09-12T03:40:36;25.05;;;21.20;;
52029;SDS011;38043;53.224;6.580;2022-09-12T03:43:03;23.05;;;20.52;;
52029;SDS011;38043;53.224;6.580;2022-09-12T03:45:29;25.60;;;21.42;;
52029;SDS011;38043;53.224;6.580;2022-09-12T03:47:54;23.40;;;20.85;;
52029;SDS011;38043;53.224;6.580;2022-09-12T03:50:20;26.67;;;21.20;;
52029;SDS011;38043;53.224;6.580;2022-09-12T03:52:46;25.27;;;20.35;;
52029;SDS011;38043;53.224;6.580;2022-09-12T03:55:12;27.75;;;21.15;;
52029;SDS011;38043;53.224;6.580;2022-09-12T03:57:37;27.92;;;22.20;;
52029;SDS011;38043;53.224;6.580;2022-09-12T04:00:04;23.10;;;19.05;;
52029;SDS011;38043;53.224;6.580;2022-09-12T04:02:31;27.30;;;21.50;;
52029;SDS011;38043;53.224;6.580;2022-09-12T04:04:57;26.05;;;21.70;;
52029;SDS011;38043;53.224;6.580;2022-09-12T04:07:22;22.35;;;19.52;;
52029;SDS011;38043;53.224;6.580;2022-09-12T04:09:48;25.08;;;20.20;;
52029;SDS011;38043;53.224;6.580;2022-09-12T04:12:14;24.38;;;20.33;;
52029;SDS011;38043;53.224;6.580;2022-09-12T04:14:40;25.85;;;20.83;;
52029;SDS011;38043;53.224;6.580;2022-09-12T04:17:06;26.60;;;21.80;;
52029;SDS011;38043;53.224;6.580;2022-09-12T04:19:32;28.00;;;21.95;;
52029;SDS011;38043;53.224;6.580;2022-09-12T04:21:57;32.53;;;22.58;;
52029;SDS011;38043;53.224;6.580;2022-09-12T04:24:23;28.63;;;22.02;;
52029;SDS011;38043;53.224;6.580;2022-09-12T04:26:48;31.23;;;23.55;;
52029;SDS011;38043;53.224;6.580;2022-09-12T04:29:14;25.60;;;21.73;;
52029;SDS011;38043;53.224;6.580;2022-09-12T04:31:40;26.98;;;21.05;;
52029;SDS011;38043;53.224;6.580;2022-09-12T04:34:06;27.73;;;21.27;;
52029;SDS011;38043;53.224;6.580;2022-09-12T04:36:32;33.15;;;23.35;;
52029;SDS011;38043;53.224;6.580;2022-09-12T04:38:59;30.83;;;22.35;;
52029;SDS011;38043;53.224;6.580;2022-09-12T04:41:27;30.65;;;22.55;;
52029;SDS011;38043;53.224;6.580;2022-09-12T04:43:56;31.20;;;22.50;;
52029;SDS011;38043;53.224;6.580;2022-09-12T04:46:25;28.33;;;21.63;;
52029;SDS011;38043;53.224;6.580;2022-09-12T04:48:51;31.85;;;24.88;;
52029;SDS011;38043;53.224;6.580;2022-09-12T04:51:28;31.45;;;24.88;;
52029;SDS011;38043;53.224;6.580;2022-09-12T04:53:59;32.13;;;23.55;;
52029;SDS011;38043;53.224;6.580;2022-09-12T04:56:27;30.27;;;23.33;;
52029;SDS011;38043;53.224;6.580;2022-09-12T04:58:55;35.67;;;24.70;;
52029;SDS011;38043;53.224;6.580;2022-09-12T05:03:48;31.25;;;23.90;;
52029;SDS011;38043;53.224;6.580;2022-09-12T05:06:18;36.28;;;25.48;;
52029;SDS011;38043;53.224;6.580;2022-09-12T05:08:48;35.05;;;25.08;;
52029;SDS011;38043;53.224;6.580;2022-09-12T05:11:16;35.17;;;24.50;;
52029;SDS011;38043;53.224;6.580;2022-09-12T05:13:46;33.85;;;24.40;;
52029;SDS011;38043;53.224;6.580;2022-09-12T05:16:13;31.20;;;24.20;;
52029;SDS011;38043;53.224;6.580;2022-09-12T05:18:40;32.75;;;24.83;;
52029;SDS011;38043;53.224;6.580;2022-09-12T05:21:07;30.33;;;23.50;;
52029;SDS011;38043;53.224;6.580;2022-09-12T05:23:35;31.48;;;23.25;;
52029;SDS011;38043;53.224;6.580;2022-09-12T05:26:01;29.48;;;22.75;;
52029;SDS011;38043;53.224;6.580;2022-09-12T05:28:28;30.40;;;23.58;;
52029;SDS011;38043;53.224;6.580;2022-09-12T05:31:05;31.58;;;23.80;;
52029;SDS011;38043;53.224;6.580;2022-09-12T05:33:40;31.33;;;24.42;;
52029;SDS011;38043;53.224;6.580;2022-09-12T05:36:12;30.65;;;23.83;;
52029;SDS011;38043;53.224;6.580;2022-09-12T05:38:39;30.45;;;23.85;;
52029;SDS011;38043;53.224;6.580;2022-09-12T05:41:05;29.90;;;22.92;;
52029;SDS011;38043;53.224;6.580;2022-09-12T05:43:36;28.83;;;23.08;;
52029;SDS011;38043;53.224;6.580;2022-09-12T05:46:04;28.48;;;22.70;;
52029;SDS011;38043;53.224;6.580;2022-09-12T05:48:37;30.38;;;24.00;;
52029;SDS011;38043;53.224;6.580;2022-09-12T05:51:05;29.52;;;23.25;;
52029;SDS011;38043;53.224;6.580;2022-09-12T05:53:33;32.17;;;24.40;;
52029;SDS011;38043;53.224;6.580;2022-09-12T05:58:30;30.20;;;22.45;;
52029;SDS011;38043;53.224;6.580;2022-09-12T06:01:00;30.75;;;23.95;;
52029;SDS011;38043;53.224;6.580;2022-09-12T06:03:27;32.72;;;24.63;;
52029;SDS011;38043;53.224;6.580;2022-09-12T06:05:52;35.05;;;23.27;;
52029;SDS011;38043;53.224;6.580;2022-09-12T06:08:18;31.40;;;23.63;;
52029;SDS011;38043;53.224;6.580;2022-09-12T06:10:44;31.27;;;22.95;;
52029;SDS011;38043;53.224;6.580;2022-09-12T06:13:10;33.15;;;23.23;;
52029;SDS011;38043;53.224;6.580;2022-09-12T06:15:35;33.70;;;24.25;;
52029;SDS011;38043;53.224;6.580;2022-09-12T06:18:01;33.67;;;23.52;;
52029;SDS011;38043;53.224;6.580;2022-09-12T06:20:27;31.05;;;24.00;;
52029;SDS011;38043;53.224;6.580;2022-09-12T06:22:53;31.17;;;23.95;;
52029;SDS011;38043;53.224;6.580;2022-09-12T06:25:19;36.60;;;25.20;;
52029;SDS011;38043;53.224;6.580;2022-09-12T06:27:46;39.78;;;24.70;;
52029;SDS011;38043;53.224;6.580;2022-09-12T06:30:12;36.25;;;25.98;;
52029;SDS011;38043;53.224;6.580;2022-09-12T06:32:37;38.92;;;25.80;;
52029;SDS011;38043;53.224;6.580;2022-09-12T06:35:03;36.88;;;26.60;;
52029;SDS011;38043;53.224;6.580;2022-09-12T06:37:29;35.15;;;25.58;;
52029;SDS011;38043;53.224;6.580;2022-09-12T06:39:56;37.22;;;27.13;;
52029;SDS011;38043;53.224;6.580;2022-09-12T06:42:22;40.83;;;28.00;;
52029;SDS011;38043;53.224;6.580;2022-09-12T06:44:48;38.03;;;26.42;;
52029;SDS011;38043;53.224;6.580;2022-09-12T06:47:14;39.28;;;28.15;;
52029;SDS011;38043;53.224;6.580;2022-09-12T06:49:40;41.13;;;28.13;;
52029;SDS011;38043;53.224;6.580;2022-09-12T06:52:05;42.67;;;29.27;;
52029;SDS011;38043;53.224;6.580;2022-09-12T06:54:31;43.30;;;30.52;;
52029;SDS011;38043;53.224;6.580;2022-09-12T06:56:57;44.22;;;29.67;;
52029;SDS011;38043;53.224;6.580;2022-09-12T06:59:22;40.75;;;28.95;;
52029;SDS011;38043;53.224;6.580;2022-09-12T07:01:48;43.38;;;29.85;;
52029;SDS011;38043;53.224;6.580;2022-09-12T07:04:14;45.95;;;31.05;;
52029;SDS011;38043;53.224;6.580;2022-09-12T07:06:40;51.05;;;30.58;;
52029;SDS011;38043;53.224;6.580;2022-09-12T07:11:36;56.28;;;30.33;;
52029;SDS011;38043;53.224;6.580;2022-09-12T07:14:03;44.88;;;30.42;;
52029;SDS011;38043;53.224;6.580;2022-09-12T07:16:30;50.45;;;31.88;;
52029;SDS011;38043;53.224;6.580;2022-09-12T07:19:00;51.17;;;32.28;;
52029;SDS011;38043;53.224;6.580;2022-09-12T07:21:27;49.22;;;32.53;;
52029;SDS011;38043;53.224;6.580;2022-09-12T07:23:54;49.50;;;32.65;;
52029;SDS011;38043;53.224;6.580;2022-09-12T07:28:51;47.60;;;30.63;;
52029;SDS011;38043;53.224;6.580;2022-09-12T07:31:18;47.88;;;31.75;;
52029;SDS011;38043;53.224;6.580;2022-09-12T07:33:46;49.35;;;32.60;;
52029;SDS011;38043;53.224;6.580;2022-09-12T07:36:13;46.80;;;32.58;;
52029;SDS011;38043;53.224;6.580;2022-09-12T07:38:41;47.10;;;31.30;;
52029;SDS011;38043;53.224;6.580;2022-09-12T07:41:15;49.88;;;34.28;;
52029;SDS011;38043;53.224;6.580;2022-09-12T07:43:43;50.97;;;31.80;;
52029;SDS011;38043;53.224;6.580;2022-09-12T07:46:10;50.33;;;33.38;;
52029;SDS011;38043;53.224;6.580;2022-09-12T07:48:36;48.92;;;33.42;;
52029;SDS011;38043;53.224;6.580;2022-09-12T07:51:03;51.33;;;32.97;;
52029;SDS011;38043;53.224;6.580;2022-09-12T07:53:38;56.28;;;34.15;;
52029;SDS011;38043;53.224;6.580;2022-09-12T07:56:06;55.15;;;33.53;;
52029;SDS011;38043;53.224;6.580;2022-09-12T07:58:34;52.60;;;32.63;;
52029;SDS011;38043;53.224;6.580;2022-09-12T08:01:02;51.42;;;33.53;;
52029;SDS011;38043;53.224;6.580;2022-09-12T08:03:28;53.75;;;34.20;;
52029;SDS011;38043;53.224;6.580;2022-09-12T08:05:54;51.88;;;35.03;;
52029;SDS011;38043;53.224;6.580;2022-09-12T08:08:27;55.83;;;35.00;;
52029;SDS011;38043;53.224;6.580;2022-09-12T08:10:57;49.53;;;33.35;;
52029;SDS011;38043;53.224;6.580;2022-09-12T08:13:27;56.30;;;34.55;;
52029;SDS011;38043;53.224;6.580;2022-09-12T08:15:57;49.20;;;31.52;;
52029;SDS011;38043;53.224;6.580;2022-09-12T08:18:25;46.58;;;33.22;;
52029;SDS011;38043;53.224;6.580;2022-09-12T08:23:22;47.10;;;32.17;;
52029;SDS011;38043;53.224;6.580;2022-09-12T08:25:49;50.42;;;32.72;;
52029;SDS011;38043;53.224;6.580;2022-09-12T08:28:15;48.80;;;31.20;;
52029;SDS011;38043;53.224;6.580;2022-09-12T08:30:40;46.15;;;31.48;;
52029;SDS011;38043;53.224;6.580;2022-09-12T08:33:06;46.80;;;32.13;;
52029;SDS011;38043;53.224;6.580;2022-09-12T08:35:32;47.13;;;31.42;;
52029;SDS011;38043;53.224;6.580;2022-09-12T08:37:58;47.45;;;30.80;;
52029;SDS011;38043;53.224;6.580;2022-09-12T08:40:23;47.45;;;32.10;;
52029;SDS011;38043;53.224;6.580;2022-09-12T08:42:51;48.30;;;31.20;;
52029;SDS011;38043;53.224;6.580;2022-09-12T08:45:31;47.72;;;31.35;;
52029;SDS011;38043;53.224;6.580;2022-09-12T08:48:01;45.33;;;31.85;;
52029;SDS011;38043;53.224;6.580;2022-09-12T08:53:13;41.83;;;28.98;;
52029;SDS011;38043;53.224;6.580;2022-09-12T08:55:48;40.25;;;27.95;;
52029;SDS011;38043;53.224;6.580;2022-09-12T08:58:22;41.08;;;28.13;;
52029;SDS011;38043;53.224;6.580;2022-09-12T09:15:17;39.60;;;27.30;;
52029;SDS011;38043;53.224;6.580;2022-09-12T09:20:37;41.63;;;28.90;;
52029;SDS011;38043;53.224;6.580;2022-09-12T09:25:47;42.20;;;28.25;;
52029;SDS011;38043;53.224;6.580;2022-09-12T09:31:01;40.75;;;27.00;;
52029;SDS011;38043;53.224;6.580;2022-09-12T09:33:30;39.83;;;25.85;;
52029;SDS011;38043;53.224;6.580;2022-09-12T09:36:07;42.20;;;26.10;;
52029;SDS011;38043;53.224;6.580;2022-09-12T09:38:52;39.78;;;26.25;;
52029;SDS011;38043;53.224;6.580;2022-09-12T09:42:04;42.40;;;24.67;;
52029;SDS011;38043;53.224;6.580;2022-09-12T09:44:39;61.83;;;26.95;;
52029;SDS011;38043;53.224;6.580;2022-09-12T09:47:05;43.15;;;23.95;;
52029;SDS011;38043;53.224;6.580;2022-09-12T09:49:33;39.50;;;24.27;;
52029;SDS011;38043;53.224;6.580;2022-09-12T09:52:00;35.20;;;23.52;;
52029;SDS011;38043;53.224;6.580;2022-09-12T09:54:40;34.30;;;23.92;;
52029;SDS011;38043;53.224;6.580;2022-09-12T10:11:20;34.70;;;23.05;;
52029;SDS011;38043;53.224;6.580;2022-09-12T10:18:53;37.45;;;23.50;;
52029;SDS011;38043;53.224;6.580;2022-09-12T10:21:33;30.63;;;21.92;;
52029;SDS011;38043;53.224;6.580;2022-09-12T10:26:51;33.90;;;22.70;;
52029;SDS011;38043;53.224;6.580;2022-09-12T10:29:24;27.63;;;20.85;;
52029;SDS011;38043;53.224;6.580;2022-09-12T10:32:00;30.05;;;21.02;;
52029;SDS011;38043;53.224;6.580;2022-09-12T10:34:30;31.77;;;21.80;;
52029;SDS011;38043;53.224;6.580;2022-09-12T10:37:07;31.67;;;21.27;;
52029;SDS011;38043;53.224;6.580;2022-09-12T10:39:41;29.58;;;19.75;;
52029;SDS011;38043;53.224;6.580;2022-09-12T10:43:14;28.95;;;20.08;;
52029;SDS011;38043;53.224;6.580;2022-09-12T10:48:00;24.38;;;17.25;;
52029;SDS011;38043;53.224;6.580;2022-09-12T10:53:17;22.52;;;16.58;;
52029;SDS011;38043;53.224;6.580;2022-09-12T10:56:04;28.77;;;18.98;;
52029;SDS011;38043;53.224;6.580;2022-09-12T11:06:39;19.15;;;13.20;;
52029;SDS011;38043;53.224;6.580;2022-09-12T11:09:20;23.13;;;14.95;;
52029;SDS011;38043;53.224;6.580;2022-09-12T11:17:18;22.17;;;15.93;;
52029;SDS011;38043;53.224;6.580;2022-09-12T11:20:00;24.52;;;14.98;;
52029;SDS011;38043;53.224;6.580;2022-09-12T11:26:24;23.90;;;16.60;;
52029;SDS011;38043;53.224;6.580;2022-09-12T11:31:53;24.25;;;17.35;;
52029;SDS011;38043;53.224;6.580;2022-09-12T11:40:15;18.38;;;12.00;;
52029;SDS011;38043;53.224;6.580;2022-09-12T11:42:47;17.25;;;12.05;;
52029;SDS011;38043;53.224;6.580;2022-09-12T11:45:32;17.05;;;12.35;;
52029;SDS011;38043;53.224;6.580;2022-09-12T11:48:05;17.42;;;11.25;;
52029;SDS011;38043;53.224;6.580;2022-09-12T11:50:35;14.95;;;10.15;;
52029;SDS011;38043;53.224;6.580;2022-09-12T11:53:10;16.98;;;10.93;;
52029;SDS011;38043;53.224;6.580;2022-09-12T11:55:46;16.48;;;10.88;;
52029;SDS011;38043;53.224;6.580;2022-09-12T11:58:43;16.00;;;9.70;;
52029;SDS011;38043;53.224;6.580;2022-09-12T12:01:16;19.67;;;9.70;;
52029;SDS011;38043;53.224;6.580;2022-09-12T12:03:46;11.13;;;6.22;;
52029;SDS011;38043;53.224;6.580;2022-09-12T12:08:53;9.30;;;6.72;;
52029;SDS011;38043;53.224;6.580;2022-09-12T12:11:53;11.85;;;6.65;;
52029;SDS011;38043;53.224;6.580;2022-09-12T12:14:19;11.10;;;7.53;;
52029;SDS011;38043;53.224;6.580;2022-09-12T12:16:49;12.27;;;8.20;;
52029;SDS011;38043;53.224;6.580;2022-09-12T12:21:42;10.77;;;7.25;;
52029;SDS011;38043;53.224;6.580;2022-09-12T12:34:30;10.27;;;6.00;;
52029;SDS011;38043;53.224;6.580;2022-09-12T12:37:45;9.27;;;6.25;;
52029;SDS011;38043;53.224;6.580;2022-09-12T12:47:55;8.75;;;5.65;;
52029;SDS011;38043;53.224;6.580;2022-09-12T12:50:41;9.73;;;6.43;;
52029;SDS011;38043;53.224;6.580;2022-09-12T12:55:51;12.43;;;6.22;;
52029;SDS011;38043;53.224;6.580;2022-09-12T13:03:34;6.82;;;4.57;;
52029;SDS011;38043;53.224;6.580;2022-09-12T13:06:02;7.40;;;4.72;;
52029;SDS011;38043;53.224;6.580;2022-09-12T13:08:32;16.60;;;4.70;;
52029;SDS011;38043;53.224;6.580;2022-09-12T13:13:52;7.25;;;4.05;;
52029;SDS011;38043;53.224;6.580;2022-09-12T13:16:30;9.63;;;5.28;;
52029;SDS011;38043;53.224;6.580;2022-09-12T13:19:02;7.50;;;5.30;;
52029;SDS011;38043;53.224;6.580;2022-09-12T13:21:35;6.22;;;5.07;;
52029;SDS011;38043;53.224;6.580;2022-09-12T13:24:04;8.40;;;6.05;;
52029;SDS011;38043;53.224;6.580;2022-09-12T13:26:42;8.65;;;5.50;;
52029;SDS011;38043;53.224;6.580;2022-09-12T13:29:11;8.57;;;5.40;;
52029;SDS011;38043;53.224;6.580;2022-09-12T13:31:47;9.02;;;6.75;;
52029;SDS011;38043;53.224;6.580;2022-09-12T13:34:31;10.18;;;6.95;;
52029;SDS011;38043;53.224;6.580;2022-09-12T13:45:21;8.65;;;6.10;;
52029;SDS011;38043;53.224;6.580;2022-09-12T13:47:50;8.80;;;5.78;;
52029;SDS011;38043;53.224;6.580;2022-09-12T13:50:26;12.40;;;6.95;;
52029;SDS011;38043;53.224;6.580;2022-09-12T13:52:57;10.85;;;6.15;;
52029;SDS011;38043;53.224;6.580;2022-09-12T13:58:05;10.85;;;5.97;;
52029;SDS011;38043;53.224;6.580;2022-09-12T14:00:40;11.85;;;6.70;;
52029;SDS011;38043;53.224;6.580;2022-09-12T14:03:26;8.38;;;6.07;;
52029;SDS011;38043;53.224;6.580;2022-09-12T14:06:12;7.70;;;5.72;;
52029;SDS011;38043;53.224;6.580;2022-09-12T14:08:38;7.43;;;6.00;;
52029;SDS011;38043;53.224;6.580;2022-09-12T14:11:08;8.45;;;5.75;;
52029;SDS011;38043;53.224;6.580;2022-09-12T14:13:35;15.15;;;6.55;;
52029;SDS011;38043;53.224;6.580;2022-09-12T14:16:03;10.25;;;6.13;;
52029;SDS011;38043;53.224;6.580;2022-09-12T14:18:33;9.27;;;6.57;;
52029;SDS011;38043;53.224;6.580;2022-09-12T14:21:08;15.80;;;6.40;;
52029;SDS011;38043;53.224;6.580;2022-09-12T14:23:42;10.35;;;7.22;;
52029;SDS011;38043;53.224;6.580;2022-09-12T14:26:10;10.25;;;5.85;;
52029;SDS011;38043;53.224;6.580;2022-09-12T14:28:43;9.18;;;5.88;;
52029;SDS011;38043;53.224;6.580;2022-09-12T14:38:54;11.48;;;5.60;;
52029;SDS011;38043;53.224;6.580;2022-09-12T14:41:36;7.43;;;4.80;;
52029;SDS011;38043;53.224;6.580;2022-09-12T14:44:05;9.07;;;4.90;;
52029;SDS011;38043;53.224;6.580;2022-09-12T14:46:38;7.00;;;4.60;;
52029;SDS011;38043;53.224;6.580;2022-09-12T14:51:37;7.93;;;5.88;;
52029;SDS011;38043;53.224;6.580;2022-09-12T14:54:05;8.70;;;5.60;;
52029;SDS011;38043;53.224;6.580;2022-09-12T14:56:38;9.65;;;5.68;;
52029;SDS011;38043;53.224;6.580;2022-09-12T15:07:19;8.55;;;5.30;;
52029;SDS011;38043;53.224;6.580;2022-09-12T15:09:50;12.02;;;6.32;;
52029;SDS011;38043;53.224;6.580;2022-09-12T15:12:16;7.95;;;6.13;;
52029;SDS011;38043;53.224;6.580;2022-09-12T15:14:42;33.20;;;7.35;;
52029;SDS011;38043;53.224;6.580;2022-09-12T15:17:07;16.35;;;7.45;;
52029;SDS011;38043;53.224;6.580;2022-09-12T15:19:33;15.45;;;7.30;;
52029;SDS011;38043;53.224;6.580;2022-09-12T15:21:58;10.73;;;7.13;;
52029;SDS011;38043;53.224;6.580;2022-09-12T15:24:24;11.52;;;8.07;;
52029;SDS011;38043;53.224;6.580;2022-09-12T15:26:50;12.43;;;8.77;;
52029;SDS011;38043;53.224;6.580;2022-09-12T15:29:15;12.68;;;9.20;;
52029;SDS011;38043;53.224;6.580;2022-09-12T15:31:41;12.07;;;8.38;;
52029;SDS011;38043;53.224;6.580;2022-09-12T15:34:11;10.88;;;7.22;;
52029;SDS011;38043;53.224;6.580;2022-09-12T15:36:36;12.73;;;7.18;;
52029;SDS011;38043;53.224;6.580;2022-09-12T15:39:02;9.93;;;7.63;;
52029;SDS011;38043;53.224;6.580;2022-09-12T15:41:32;11.35;;;8.23;;
52029;SDS011;38043;53.224;6.580;2022-09-12T15:44:02;14.98;;;8.30;;
52029;SDS011;38043;53.224;6.580;2022-09-12T15:46:29;15.52;;;7.68;;
52029;SDS011;38043;53.224;6.580;2022-09-12T15:48:54;12.25;;;8.90;;
52029;SDS011;38043;53.224;6.580;2022-09-12T15:51:20;14.13;;;7.93;;
52029;SDS011;38043;53.224;6.580;2022-09-12T15:53:47;13.50;;;8.02;;
52029;SDS011;38043;53.224;6.580;2022-09-12T15:56:14;8.85;;;6.82;;
52029;SDS011;38043;53.224;6.580;2022-09-12T15:58:42;11.57;;;8.10;;
52029;SDS011;38043;53.224;6.580;2022-09-12T16:01:11;13.85;;;9.73;;
52029;SDS011;38043;53.224;6.580;2022-09-12T16:03:38;10.85;;;8.60;;
52029;SDS011;38043;53.224;6.580;2022-09-12T16:06:04;11.55;;;8.75;;
52029;SDS011;38043;53.224;6.580;2022-09-12T16:08:31;10.80;;;8.23;;
52029;SDS011;38043;53.224;6.580;2022-09-12T16:10:58;11.00;;;8.07;;
52029;SDS011;38043;53.224;6.580;2022-09-12T16:13:27;11.18;;;6.97;;
52029;SDS011;38043;53.224;6.580;2022-09-12T16:15:55;11.35;;;7.25;;
52029;SDS011;38043;53.224;6.580;2022-09-12T16:18:21;7.20;;;5.88;;
52029;SDS011;38043;53.224;6.580;2022-09-12T16:20:50;7.22;;;5.57;;
52029;SDS011;38043;53.224;6.580;2022-09-12T16:23:17;12.27;;;5.70;;
52029;SDS011;38043;53.224;6.580;2022-09-12T16:25:42;11.00;;;5.90;;
52029;SDS011;38043;53.224;6.580;2022-09-12T16:28:08;8.77;;;5.63;;
52029;SDS011;38043;53.224;6.580;2022-09-12T16:30:34;8.38;;;5.40;;
52029;SDS011;38043;53.224;6.580;2022-09-12T16:32:59;5.95;;;4.55;;
52029;SDS011;38043;53.224;6.580;2022-09-12T16:35:25;6.57;;;5.10;;
52029;SDS011;38043;53.224;6.580;2022-09-12T16:37:51;9.27;;;5.13;;
52029;SDS011;38043;53.224;6.580;2022-09-12T16:40:17;10.63;;;4.93;;
52029;SDS011;38043;53.224;6.580;2022-09-12T16:42:43;6.50;;;4.65;;
52029;SDS011;38043;53.224;6.580;2022-09-12T16:45:10;6.68;;;4.57;;
52029;SDS011;38043;53.224;6.580;2022-09-12T16:47:36;5.93;;;4.18;;
52029;SDS011;38043;53.224;6.580;2022-09-12T16:50:02;5.05;;;3.85;;
52029;SDS011;38043;53.224;6.580;2022-09-12T16:52:28;7.50;;;4.40;;
52029;SDS011;38043;53.224;6.580;2022-09-12T16:54:55;7.65;;;4.22;;
52029;SDS011;38043;53.224;6.580;2022-09-12T16:57:21;6.63;;;4.15;;
52029;SDS011;38043;53.224;6.580;2022-09-12T16:59:47;8.45;;;4.15;;
52029;SDS011;38043;53.224;6.580;2022-09-12T17:02:13;5.78;;;4.20;;
52029;SDS011;38043;53.224;6.580;2022-09-12T17:04:39;9.27;;;4.32;;
52029;SDS011;38043;53.224;6.580;2022-09-12T17:07:05;7.72;;;3.85;;
52029;SDS011;38043;53.224;6.580;2022-09-12T17:09:31;7.28;;;4.13;;
52029;SDS011;38043;53.224;6.580;2022-09-12T17:11:56;6.50;;;4.22;;
52029;SDS011;38043;53.224;6.580;2022-09-12T17:14:22;5.35;;;4.38;;
52029;SDS011;38043;53.224;6.580;2022-09-12T17:16:48;9.00;;;4.18;;
52029;SDS011;38043;53.224;6.580;2022-09-12T17:19:15;5.90;;;3.72;;
52029;SDS011;38043;53.224;6.580;2022-09-12T17:21:43;6.82;;;3.78;;
52029;SDS011;38043;53.224;6.580;2022-09-12T17:24:11;7.03;;;3.70;;
52029;SDS011;38043;53.224;6.580;2022-09-12T17:26:37;8.13;;;3.88;;
52029;SDS011;38043;53.224;6.580;2022-09-12T17:29:03;5.13;;;3.90;;
52029;SDS011;38043;53.224;6.580;2022-09-12T17:31:29;4.07;;;3.33;;
52029;SDS011;38043;53.224;6.580;2022-09-12T17:33:58;5.22;;;3.60;;
52029;SDS011;38043;53.224;6.580;2022-09-12T17:36:25;6.30;;;4.00;;
52029;SDS011;38043;53.224;6.580;2022-09-12T17:38:52;7.40;;;4.03;;
52029;SDS011;38043;53.224;6.580;2022-09-12T17:41:19;6.13;;;3.60;;
52029;SDS011;38043;53.224;6.580;2022-09-12T17:43:48;4.55;;;3.25;;
52029;SDS011;38043;53.224;6.580;2022-09-12T17:46:18;5.50;;;3.60;;
52029;SDS011;38043;53.224;6.580;2022-09-12T17:48:44;7.13;;;3.38;;
52029;SDS011;38043;53.224;6.580;2022-09-12T17:51:18;8.57;;;3.95;;
52029;SDS011;38043;53.224;6.580;2022-09-12T17:53:44;4.30;;;3.50;;
52029;SDS011;38043;53.224;6.580;2022-09-12T17:56:10;6.43;;;3.78;;
52029;SDS011;38043;53.224;6.580;2022-09-12T17:58:36;19.13;;;4.20;;
52029;SDS011;38043;53.224;6.580;2022-09-12T18:01:03;7.05;;;3.90;;